Time;durP1;ratioP1;P1;durP2;ratioP2;P2;SDS_P1;SDS_P2;PMS_P1;PMS_P2;Temp;Humidity;BMP_temperature;BMP_pressure;BME280_temperature;BME280_humidity;BME280_pressure;Samples;Min_cycle;Max_cycle;Signal;HPM_P1;HPM_P2
2023/12/10 00:01:06;;;;;;;0.07;0.00;;;7.50;99.90;;;;;;5011651;28;20279;-57
2023/12/10 00:03:33;;;;;;;0.17;0.00;;;7.50;99.90;;;;;;5009170;28;20673;-57
2023/12/10 00:06:00;;;;;;;0.00;0.00;;;7.40;99.90;;;;;;5011723;28;20205;-57
2023/12/10 00:08:28;;;;;;;0.00;0.00;;;7.50;99.90;;;;;;5010273;28;20261;-57
2023/12/10 00:10:55;;;;;;;1.30;0.00;;;7.50;99.90;;;;;;5015214;28;20200;-57
2023/12/10 00:13:22;;;;;;;0.10;0.00;;;7.50;99.90;;;;;;5011435;28;20268;-57
2023/12/10 00:15:50;;;;;;;0.00;0.00;;;7.40;99.90;;;;;;5011774;28;20204;-57
2023/12/10 00:18:18;;;;;;;0.00;0.00;;;7.40;99.90;;;;;;5011242;28;20728;-57
2023/12/10 00:20:45;;;;;;;0.00;0.00;;;7.40;99.90;;;;;;5010479;28;20213;-57
2023/12/10 00:23:12;;;;;;;0.00;0.00;;;7.30;99.90;;;;;;5005734;28;20247;-57
2023/12/10 00:25:40;;;;;;;0.00;0.00;;;7.20;99.90;;;;;;5011394;28;20628;-58
2023/12/10 00:28:08;;;;;;;0.00;0.00;;;7.10;99.90;;;;;;5011201;28;20275;-57
2023/12/10 00:30:36;;;;;;;0.00;0.00;;;7.00;99.90;;;;;;5011804;28;20204;-57
2023/12/10 00:33:05;;;;;;;0.00;0.00;;;7.10;99.90;;;;;;5011565;28;20218;-57
2023/12/10 00:35:32;;;;;;;0.10;0.00;;;7.00;99.90;;;;;;5009941;28;20237;-57
2023/12/10 00:37:59;;;;;;;0.87;0.00;;;7.00;99.90;;;;;;5011089;28;20762;-57
2023/12/10 00:40:26;;;;;;;0.13;0.00;;;6.90;99.90;;;;;;5010225;28;20634;-57
2023/12/10 00:42:57;;;;;;;0.00;0.00;;;6.90;99.90;;;;;;5013707;28;20198;-58
2023/12/10 00:45:24;;;;;;;0.00;0.00;;;6.80;99.90;;;;;;5009321;28;20260;-57
2023/12/10 00:47:51;;;;;;;0.00;0.00;;;6.80;99.90;;;;;;5007165;28;20230;-57
2023/12/10 00:50:18;;;;;;;0.00;0.00;;;6.80;99.90;;;;;;5011242;28;20565;-57
2023/12/10 00:52:45;;;;;;;0.00;0.00;;;6.80;99.90;;;;;;5011532;28;20207;-57
2023/12/10 00:55:13;;;;;;;0.00;0.00;;;6.80;99.90;;;;;;5011522;28;20620;-58
2023/12/10 00:57:40;;;;;;;0.10;0.00;;;6.80;99.90;;;;;;5009999;28;20715;-57
2023/12/10 01:00:09;;;;;;;0.00;0.00;;;6.80;99.90;;;;;;5014893;28;20679;-57
2023/12/10 01:02:36;;;;;;;0.10;0.00;;;6.80;99.90;;;;;;5011376;28;20708;-59
2023/12/10 01:05:04;;;;;;;0.00;0.00;;;6.80;99.90;;;;;;5011613;28;20689;-64
2023/12/10 01:07:31;;;;;;;0.00;0.00;;;6.80;99.90;;;;;;5009575;28;20228;-57
2023/12/10 01:09:57;;;;;;;1.13;0.00;;;6.80;99.90;;;;;;5011954;28;20268;-58
2023/12/10 01:12:24;;;;;;;0.00;0.00;;;6.80;99.90;;;;;;5014337;28;20274;-57
2023/12/10 01:14:51;;;;;;;0.30;0.00;;;6.80;99.90;;;;;;5015152;28;20672;-57
2023/12/10 01:17:20;;;;;;;0.40;0.00;;;6.80;99.90;;;;;;5031606;28;20549;-57
2023/12/10 01:19:47;;;;;;;2.07;0.00;;;6.80;99.90;;;;;;5034826;28;20256;-57
2023/12/10 01:22:14;;;;;;;1.90;0.10;;;6.80;99.90;;;;;;5034847;28;20614;-58
2023/12/10 01:24:41;;;;;;;0.00;0.00;;;6.80;99.90;;;;;;5025938;28;20736;-57
2023/12/10 01:27:09;;;;;;;0.00;0.00;;;6.80;99.90;;;;;;5013928;28;20199;-57
2023/12/10 01:29:36;;;;;;;1.80;0.10;;;6.80;99.90;;;;;;5014924;28;20275;-57
2023/12/10 01:32:04;;;;;;;0.00;0.00;;;6.70;99.90;;;;;;5014985;28;20356;-57
2023/12/10 01:34:32;;;;;;;1.33;0.00;;;6.70;99.90;;;;;;5014850;28;20257;-57
2023/12/10 01:36:59;;;;;;;0.33;0.00;;;6.80;99.90;;;;;;5011991;28;20210;-57
2023/12/10 01:39:26;;;;;;;1.10;0.10;;;6.80;99.90;;;;;;5014544;28;20219;-57
2023/12/10 01:41:53;;;;;;;3.10;0.10;;;6.70;99.90;;;;;;5013353;28;20262;-57
2023/12/10 01:44:20;;;;;;;3.30;0.23;;;6.70;99.90;;;;;;5013936;28;20208;-57
2023/12/10 01:46:47;;;;;;;1.77;0.20;;;6.60;99.90;;;;;;5014487;28;20221;-57
2023/12/10 01:49:15;;;;;;;0.70;0.03;;;6.60;99.90;;;;;;5019509;28;20295;-57
2023/12/10 01:51:47;;;;;;;0.63;0.10;;;6.60;99.90;;;;;;5014136;28;20201;-57
2023/12/10 01:54:21;;;;;;;1.20;1.07;;;6.60;99.90;;;;;;5014332;28;20227;-57
2023/12/10 01:56:49;;;;;;;0.17;0.10;;;6.60;99.90;;;;;;5013029;28;20250;-57
2023/12/10 01:59:16;;;;;;;0.50;0.10;;;6.60;99.90;;;;;;5005366;28;20213;-57
2023/12/10 02:01:46;;;;;;;0.37;0.23;;;6.60;99.90;;;;;;5012038;28;20632;-57
2023/12/10 02:04:15;;;;;;;1.80;0.00;;;6.70;99.90;;;;;;5012433;28;20827;-57
2023/12/10 02:06:49;;;;;;;0.13;0.13;;;6.70;99.90;;;;;;5014250;28;20216;-58
2023/12/10 02:09:18;;;;;;;3.13;0.23;;;6.70;99.90;;;;;;5012738;28;20250;-57
2023/12/10 02:11:48;;;;;;;0.57;0.00;;;6.70;99.90;;;;;;5013952;28;20205;-57
2023/12/10 02:14:15;;;;;;;2.00;0.10;;;6.80;99.90;;;;;;5012298;28;20264;-57
2023/12/10 02:16:45;;;;;;;0.33;0.10;;;6.80;99.90;;;;;;5013962;28;20208;-57
2023/12/10 02:19:12;;;;;;;2.73;0.30;;;6.80;99.90;;;;;;5013559;28;20650;-57
2023/12/10 02:21:42;;;;;;;2.57;0.43;;;6.80;99.90;;;;;;5020952;28;20699;-57
2023/12/10 02:24:15;;;;;;;2.37;0.30;;;6.80;99.90;;;;;;5017973;28;20287;-57
2023/12/10 02:26:43;;;;;;;7.27;0.30;;;6.80;99.90;;;;;;5012007;28;20205;-57
2023/12/10 02:29:10;;;;;;;2.57;0.30;;;6.90;99.90;;;;;;5012382;28;20285;-57
2023/12/10 02:31:38;;;;;;;1.53;0.50;;;6.90;99.90;;;;;;5013831;28;20214;-57
2023/12/10 02:34:05;;;;;;;3.13;0.43;;;7.00;99.90;;;;;;5013486;28;20297;-57
2023/12/10 02:36:32;;;;;;;0.87;0.30;;;7.00;99.90;;;;;;5013469;28;20793;-57
2023/12/10 02:38:59;;;;;;;2.33;0.43;;;7.10;99.90;;;;;;5029744;28;20670;-57
2023/12/10 02:41:26;;;;;;;7.00;0.50;;;7.00;99.90;;;;;;5011262;28;20610;-57
2023/12/10 02:43:55;;;;;;;3.90;0.60;;;7.10;99.90;;;;;;5013157;28;20256;-57
2023/12/10 02:46:22;;;;;;;1.87;0.40;;;7.00;99.90;;;;;;5011994;28;20205;-57
2023/12/10 02:48:48;;;;;;;2.80;0.33;;;7.00;99.90;;;;;;5011784;28;20757;-57
2023/12/10 02:51:16;;;;;;;4.00;0.40;;;7.00;99.90;;;;;;5012980;28;20731;-57
2023/12/10 02:53:43;;;;;;;5.90;1.23;;;7.00;99.90;;;;;;5013737;28;20204;-57
2023/12/10 02:56:10;;;;;;;4.03;0.40;;;7.00;99.90;;;;;;5014340;28;20201;-57
2023/12/10 02:58:37;;;;;;;4.97;0.60;;;7.00;99.90;;;;;;5010971;28;20219;-57
2023/12/10 03:01:06;;;;;;;11.13;0.90;;;7.00;99.90;;;;;;5012824;28;20285;-57
2023/12/10 03:03:33;;;;;;;5.67;0.80;;;7.10;99.90;;;;;;5016171;28;20196;-57
2023/12/10 03:06:00;;;;;;;5.43;0.70;;;7.00;99.90;;;;;;5011471;28;20212;-57
2023/12/10 03:08:27;;;;;;;11.23;0.87;;;7.10;99.90;;;;;;5012266;28;20230;-57
2023/12/10 03:10:54;;;;;;;2.60;0.23;;;7.10;99.90;;;;;;5028296;28;20204;-57
2023/12/10 03:13:21;;;;;;;4.70;0.43;;;7.20;99.90;;;;;;5032745;28;20201;-58
2023/12/10 03:15:48;;;;;;;1.13;0.13;;;7.20;99.90;;;;;;5032532;28;20684;-57
2023/12/10 03:18:16;;;;;;;2.37;0.10;;;7.20;99.90;;;;;;5019731;28;20232;-57
2023/12/10 03:20:43;;;;;;;2.53;1.23;;;7.10;99.90;;;;;;5011526;28;20200;-57
2023/12/10 03:23:10;;;;;;;1.97;0.23;;;7.00;99.90;;;;;;5012385;28;20212;-57
2023/12/10 03:25:37;;;;;;;1.03;0.20;;;6.90;99.90;;;;;;5011053;28;20201;-58
2023/12/10 03:28:05;;;;;;;2.10;0.23;;;6.90;99.90;;;;;;5013903;28;20233;-57
2023/12/10 03:30:32;;;;;;;1.80;0.20;;;6.90;99.90;;;;;;5011147;28;20224;-57
2023/12/10 03:32:59;;;;;;;0.67;0.07;;;6.90;99.90;;;;;;5011701;28;20209;-58
2023/12/10 03:35:27;;;;;;;5.10;0.60;;;6.90;99.90;;;;;;5012446;28;20669;-57
2023/12/10 03:37:54;;;;;;;3.50;0.60;;;6.90;99.90;;;;;;5010963;28;20233;-57
2023/12/10 03:40:21;;;;;;;1.20;0.20;;;7.00;99.90;;;;;;5010472;28;20211;-57
2023/12/10 03:42:48;;;;;;;4.20;0.50;;;6.90;99.90;;;;;;5014378;28;20231;-57
2023/12/10 03:45:16;;;;;;;1.87;0.53;;;6.90;99.90;;;;;;5011989;28;20204;-57
2023/12/10 03:47:46;;;;;;;3.23;0.57;;;6.90;99.90;;;;;;5010070;28;20225;-58
2023/12/10 03:50:13;;;;;;;4.70;0.20;;;6.90;99.90;;;;;;5012338;28;20319;-57
2023/12/10 03:52:42;;;;;;;2.53;0.30;;;6.80;99.90;;;;;;5005343;28;20206;-57
2023/12/10 03:55:09;;;;;;;3.70;0.60;;;6.80;99.90;;;;;;4994482;28;20211;-58
2023/12/10 03:57:36;;;;;;;3.90;1.27;;;6.80;99.90;;;;;;4999234;28;20243;-58
2023/12/10 04:00:05;;;;;;;2.53;0.33;;;6.70;99.90;;;;;;5029352;28;20200;-57
2023/12/10 04:02:32;;;;;;;1.60;0.30;;;6.70;99.90;;;;;;5031909;28;20246;-57
2023/12/10 04:04:59;;;;;;;1.70;0.40;;;6.60;99.90;;;;;;5031815;28;20212;-58
2023/12/10 04:07:26;;;;;;;2.77;0.23;;;6.50;99.90;;;;;;5013454;28;20739;-57
2023/12/10 04:09:54;;;;;;;2.27;0.73;;;6.50;99.90;;;;;;5009565;28;20221;-57
2023/12/10 04:12:21;;;;;;;6.33;0.93;;;6.50;99.90;;;;;;5011009;28;20209;-57
2023/12/10 04:14:48;;;;;;;2.83;0.40;;;6.70;99.90;;;;;;5009999;28;20705;-57
2023/12/10 04:17:15;;;;;;;9.73;1.07;;;6.80;99.90;;;;;;5009037;28;20240;-57
2023/12/10 04:19:42;;;;;;;4.37;1.00;;;7.10;99.90;;;;;;5010943;28;20266;-57
2023/12/10 04:22:09;;;;;;;4.43;0.70;;;7.10;99.90;;;;;;5010890;28;20308;-57
2023/12/10 04:24:36;;;;;;;3.13;0.80;;;7.20;99.90;;;;;;5006859;28;20255;-57
2023/12/10 04:27:05;;;;;;;8.80;0.70;;;7.10;99.90;;;;;;5012843;28;20726;-58
2023/12/10 04:29:32;;;;;;;10.27;0.80;;;7.00;99.90;;;;;;5008939;28;20217;-57
2023/12/10 04:32:00;;;;;;;6.73;0.83;;;7.00;99.90;;;;;;5007992;28;20640;-57
2023/12/10 04:34:27;;;;;;;3.83;0.60;;;7.00;99.90;;;;;;5010646;28;20201;-57
2023/12/10 04:36:54;;;;;;;7.63;1.13;;;7.00;99.90;;;;;;5010222;28;20212;-57
2023/12/10 04:39:21;;;;;;;3.23;0.60;;;7.00;99.90;;;;;;5010332;28;20217;-58
2023/12/10 04:41:49;;;;;;;4.57;0.87;;;6.90;99.90;;;;;;5010245;28;20205;-57
2023/12/10 04:44:18;;;;;;;4.47;1.20;;;6.90;99.90;;;;;;5010292;28;20205;-57
2023/12/10 04:46:48;;;;;;;5.67;0.53;;;6.90;99.90;;;;;;5014375;28;20208;-57
2023/12/10 04:49:15;;;;;;;10.73;1.23;;;6.80;99.90;;;;;;5014112;28;20320;-57
2023/12/10 04:51:45;;;;;;;7.40;0.77;;;6.80;99.90;;;;;;5014841;28;20208;-57
2023/12/10 04:54:12;;;;;;;5.50;0.67;;;6.80;99.90;;;;;;5017407;28;20209;-57
2023/12/10 04:56:40;;;;;;;4.87;0.60;;;6.80;99.90;;;;;;5008608;28;20224;-58
2023/12/10 04:59:07;;;;;;;3.97;0.50;;;6.90;99.90;;;;;;5010262;28;20256;-58
2023/12/10 05:01:35;;;;;;;0.80;0.60;;;6.80;99.90;;;;;;5011508;28;20209;-58
2023/12/10 05:04:02;;;;;;;8.17;1.27;;;6.80;99.90;;;;;;5014484;28;20207;-57
2023/12/10 05:06:30;;;;;;;5.17;0.90;;;6.70;99.90;;;;;;5011601;28;20201;-57
2023/12/10 05:08:57;;;;;;;2.83;0.73;;;6.60;99.90;;;;;;5012975;28;20226;-59
2023/12/10 05:11:24;;;;;;;5.17;0.70;;;6.60;99.90;;;;;;5014139;28;20206;-57
2023/12/10 05:13:51;;;;;;;6.47;1.63;;;6.70;99.90;;;;;;5013731;28;20201;-57
2023/12/10 05:16:18;;;;;;;10.80;1.40;;;6.80;99.90;;;;;;5014043;28;20205;-57
2023/12/10 05:18:47;;;;;;;3.80;0.60;;;6.90;99.90;;;;;;5007141;28;20224;-58
2023/12/10 05:21:14;;;;;;;6.03;1.53;;;6.80;99.90;;;;;;5013503;28;20203;-58
2023/12/10 05:23:41;;;;;;;4.87;0.73;;;6.80;99.90;;;;;;5017180;28;20209;-57
2023/12/10 05:26:08;;;;;;;1.73;0.60;;;6.80;99.90;;;;;;5008762;28;20254;-57
2023/12/10 05:28:35;;;;;;;4.67;0.70;;;6.80;99.90;;;;;;5011689;28;20224;-57
2023/12/10 05:31:04;;;;;;;5.40;1.07;;;6.90;99.90;;;;;;5012782;28;20228;-58
2023/12/10 05:33:31;;;;;;;5.03;1.27;;;7.00;99.90;;;;;;5010028;28;20580;-58
2023/12/10 05:36:00;;;;;;;5.33;0.50;;;7.00;99.90;;;;;;5014480;28;20243;-57
2023/12/10 05:38:27;;;;;;;5.97;1.63;;;7.00;99.90;;;;;;5014858;28;20240;-58
2023/12/10 05:40:54;;;;;;;3.93;1.27;;;7.00;99.90;;;;;;5013742;28;20197;-57
2023/12/10 05:43:21;;;;;;;5.13;1.40;;;6.90;99.90;;;;;;5010173;28;20291;-57
2023/12/10 05:45:48;;;;;;;3.07;0.80;;;6.90;99.90;;;;;;5015718;28;20197;-58
2023/12/10 05:48:15;;;;;;;3.77;1.07;;;7.00;99.90;;;;;;5015147;28;20230;-58
2023/12/10 05:50:42;;;;;;;5.90;0.70;;;6.90;99.90;;;;;;5014085;28;20232;-57
2023/12/10 05:53:11;;;;;;;9.03;0.90;;;6.90;99.90;;;;;;5012271;28;20232;-57
2023/12/10 05:55:38;;;;;;;6.07;0.90;;;6.90;99.90;;;;;;5012876;28;20206;-57
2023/12/10 05:58:05;;;;;;;2.43;0.50;;;6.90;99.90;;;;;;5012637;28;20232;-57
2023/12/10 06:00:32;;;;;;;2.77;0.80;;;7.00;99.90;;;;;;5013530;28;20220;-57
2023/12/10 06:02:59;;;;;;;4.87;0.73;;;6.90;99.90;;;;;;5014842;28;20608;-57
2023/12/10 06:05:26;;;;;;;2.77;0.53;;;7.00;99.90;;;;;;5011015;28;20213;-57
2023/12/10 06:07:53;;;;;;;4.73;0.70;;;6.90;99.90;;;;;;5018650;28;20223;-57
2023/12/10 06:10:21;;;;;;;3.60;0.47;;;6.90;99.90;;;;;;5013219;28;20233;-57
2023/12/10 06:12:50;;;;;;;6.43;0.50;;;6.80;99.90;;;;;;5009618;28;20573;-58
2023/12/10 06:15:17;;;;;;;4.00;0.70;;;6.80;99.90;;;;;;5012220;28;20655;-57
2023/12/10 06:17:44;;;;;;;5.50;0.50;;;6.80;99.90;;;;;;5012180;28;20224;-57
2023/12/10 06:20:12;;;;;;;4.63;0.83;;;6.90;99.90;;;;;;5006966;28;20201;-57
2023/12/10 06:22:39;;;;;;;3.50;0.90;;;6.90;99.90;;;;;;5008687;28;20205;-58
2023/12/10 06:25:06;;;;;;;7.30;1.27;;;6.80;99.90;;;;;;5012789;28;20209;-57
2023/12/10 06:27:35;;;;;;;4.37;0.70;;;6.70;99.90;;;;;;5010002;28;20732;-58
2023/12/10 06:30:02;;;;;;;7.80;0.73;;;6.80;99.90;;;;;;5011512;28;20233;-57
2023/12/10 06:32:29;;;;;;;2.00;0.83;;;6.90;99.90;;;;;;5011443;28;20209;-57
2023/12/10 06:34:56;;;;;;;7.07;0.77;;;7.00;99.90;;;;;;5012723;28;20232;-57
2023/12/10 06:37:23;;;;;;;4.47;0.60;;;7.00;99.90;;;;;;5012778;28;20246;-57
2023/12/10 06:39:50;;;;;;;5.77;1.27;;;7.10;99.90;;;;;;5011524;28;20249;-57
2023/12/10 06:42:17;;;;;;;5.00;0.60;;;7.20;99.90;;;;;;5007767;28;20201;-57
2023/12/10 06:44:46;;;;;;;2.60;0.80;;;7.10;99.90;;;;;;5011743;28;20280;-57
2023/12/10 06:47:12;;;;;;;3.57;1.90;;;7.10;99.90;;;;;;5007428;28;20272;-57
2023/12/10 06:49:39;;;;;;;2.17;0.40;;;7.00;99.90;;;;;;5006254;28;20221;-57
2023/12/10 06:52:06;;;;;;;5.17;0.40;;;7.00;99.90;;;;;;5010677;28;20649;-57
2023/12/10 06:54:33;;;;;;;4.73;2.33;;;7.00;99.90;;;;;;5011946;28;20204;-57
2023/12/10 06:57:00;;;;;;;6.83;1.17;;;7.00;99.90;;;;;;5009376;28;20264;-57
2023/12/10 06:59:27;;;;;;;7.73;1.43;;;6.90;99.90;;;;;;5007940;28;20226;-57
2023/12/10 07:01:55;;;;;;;3.43;0.83;;;6.80;99.90;;;;;;5011407;28;20200;-57
2023/12/10 07:04:22;;;;;;;5.17;0.63;;;6.90;99.90;;;;;;5010042;28;20261;-58
2023/12/10 07:06:53;;;;;;;6.77;0.97;;;7.00;99.90;;;;;;5007920;28;20263;-57
2023/12/10 07:09:20;;;;;;;2.20;0.63;;;6.90;99.90;;;;;;5013154;28;20227;-58
2023/12/10 07:11:47;;;;;;;3.27;0.60;;;6.90;99.90;;;;;;5011262;28;20201;-57
2023/12/10 07:14:14;;;;;;;2.27;0.53;;;6.80;99.90;;;;;;5011029;28;20212;-58
2023/12/10 07:16:41;;;;;;;4.87;0.83;;;6.90;99.90;;;;;;5012234;28;20204;-57
2023/12/10 07:19:09;;;;;;;7.33;0.70;;;7.00;99.90;;;;;;5011924;28;20229;-57
2023/12/10 07:21:36;;;;;;;4.83;0.80;;;7.10;99.90;;;;;;5012127;28;20251;-58
2023/12/10 07:24:04;;;;;;;5.63;0.80;;;7.10;99.90;;;;;;5011807;28;20204;-57
2023/12/10 07:26:30;;;;;;;4.97;0.90;;;7.20;99.90;;;;;;5011627;28;20647;-57
2023/12/10 07:28:57;;;;;;;7.90;1.17;;;7.40;99.90;;;;;;5013987;28;20217;-57
2023/12/10 07:31:25;;;;;;;7.30;1.20;;;7.40;99.90;;;;;;5007942;28;20279;-57
2023/12/10 07:33:52;;;;;;;4.83;1.27;;;7.40;99.90;;;;;;5012254;28;20228;-58
2023/12/10 07:36:20;;;;;;;16.50;3.70;;;7.30;99.90;;;;;;5011813;28;20267;-58
2023/12/10 07:38:47;;;;;;;9.17;2.77;;;7.20;99.90;;;;;;5011384;28;20228;-57
2023/12/10 07:41:14;;;;;;;3.80;0.87;;;7.20;99.90;;;;;;5015426;28;20193;-58
2023/12/10 07:43:41;;;;;;;3.07;0.70;;;7.20;99.90;;;;;;5011318;28;20202;-57
2023/12/10 07:46:08;;;;;;;7.47;1.10;;;7.20;99.90;;;;;;5011341;28;20201;-58
2023/12/10 07:48:35;;;;;;;3.70;1.43;;;7.20;99.90;;;;;;5011046;28;20700;-57
2023/12/10 07:51:02;;;;;;;4.03;0.50;;;7.20;99.90;;;;;;5011511;28;20651;-57
2023/12/10 07:53:31;;;;;;;1.67;0.40;;;7.30;99.90;;;;;;5011624;28;20205;-57
2023/12/10 07:55:57;;;;;;;4.90;0.70;;;7.60;99.90;;;;;;5011381;28;20257;-57
2023/12/10 07:58:25;;;;;;;3.47;0.80;;;7.60;99.90;;;;;;5009921;28;20227;-58
2023/12/10 08:00:52;;;;;;;6.93;1.20;;;7.50;99.90;;;;;;5013132;28;20748;-59
2023/12/10 08:03:19;;;;;;;6.80;1.97;;;7.50;99.90;;;;;;5013433;28;20235;-58
2023/12/10 08:05:47;;;;;;;3.87;1.03;;;7.40;99.90;;;;;;5010979;28;20224;-58
2023/12/10 08:08:14;;;;;;;3.17;0.77;;;7.40;99.90;;;;;;5011328;28;20742;-56
2023/12/10 08:10:43;;;;;;;4.17;1.43;;;7.30;99.90;;;;;;5011580;28;20220;-58
2023/12/10 08:13:10;;;;;;;8.13;0.67;;;7.20;99.90;;;;;;5005526;28;20209;-57
2023/12/10 08:15:38;;;;;;;2.80;0.83;;;7.20;99.90;;;;;;5011806;28;20665;-57
2023/12/10 08:18:05;;;;;;;6.53;0.80;;;7.20;99.90;;;;;;5009375;28;20356;-58
2023/12/10 08:20:33;;;;;;;4.53;0.70;;;7.10;99.90;;;;;;5013098;28;20229;-58
2023/12/10 08:23:01;;;;;;;3.23;0.60;;;7.00;99.90;;;;;;5009104;28;20280;-57
2023/12/10 08:25:28;;;;;;;2.10;0.50;;;7.00;99.90;;;;;;5011601;28;20205;-57
2023/12/10 08:27:56;;;;;;;8.73;1.50;;;7.00;99.90;;;;;;5010290;28;20779;-57
2023/12/10 08:30:24;;;;;;;2.93;0.90;;;7.00;99.90;;;;;;5011423;28;20229;-58
2023/12/10 08:32:51;;;;;;;4.03;0.93;;;7.00;99.90;;;;;;5011224;28;20787;-58
2023/12/10 08:35:18;;;;;;;8.03;0.63;;;6.80;99.90;;;;;;5009222;28;20209;-58
2023/12/10 08:37:46;;;;;;;6.10;2.07;;;6.80;99.90;;;;;;5009558;28;20250;-58
2023/12/10 08:40:14;;;;;;;8.07;3.07;;;6.80;99.90;;;;;;5007139;28;20202;-57
2023/12/10 08:42:41;;;;;;;13.50;3.77;;;6.80;99.90;;;;;;5001131;28;20613;-58
2023/12/10 08:45:11;;;;;;;7.40;1.80;;;6.80;99.90;;;;;;5011401;28;20212;-58
2023/12/10 08:47:38;;;;;;;7.40;0.93;;;6.90;99.90;;;;;;5010026;28;20248;-58
2023/12/10 08:50:06;;;;;;;5.80;2.13;;;7.00;99.90;;;;;;5011176;28;20289;-57
2023/12/10 08:52:33;;;;;;;8.27;2.33;;;7.00;99.90;;;;;;5012290;28;20209;-57
2023/12/10 08:55:01;;;;;;;3.23;0.40;;;7.00;99.90;;;;;;5007077;28;20214;-57
2023/12/10 08:57:28;;;;;;;5.20;0.90;;;7.10;99.90;;;;;;5013622;28;20220;-60
2023/12/10 09:00:00;;;;;;;5.53;0.90;;;7.20;99.90;;;;;;5007558;28;20226;-59
2023/12/10 09:02:28;;;;;;;4.83;0.87;;;7.20;99.90;;;;;;5007729;28;20209;-57
2023/12/10 09:04:55;;;;;;;2.80;0.73;;;7.40;99.90;;;;;;5009355;28;20236;-57
2023/12/10 09:07:22;;;;;;;7.90;0.90;;;7.50;99.90;;;;;;5009263;28;20218;-57
2023/12/10 09:09:49;;;;;;;3.47;1.00;;;7.70;99.90;;;;;;5002898;28;20739;-58
2023/12/10 09:12:16;;;;;;;7.47;2.20;;;7.80;99.90;;;;;;5008175;28;20635;-58
2023/12/10 09:14:43;;;;;;;5.77;1.00;;;7.90;99.90;;;;;;5005645;28;20205;-58
2023/12/10 09:17:10;;;;;;;2.47;0.70;;;8.00;99.90;;;;;;5007929;28;20252;-58
2023/12/10 09:19:39;;;;;;;6.67;0.60;;;8.00;99.90;;;;;;5005630;28;20258;-58
2023/12/10 09:22:06;;;;;;;4.70;1.00;;;8.00;99.90;;;;;;5010081;28;20685;-58
2023/12/10 09:24:33;;;;;;;2.77;0.73;;;8.10;99.90;;;;;;5014865;28;20823;-58
2023/12/10 09:27:00;;;;;;;1.63;1.07;;;8.20;99.90;;;;;;5010889;28;20670;-57
2023/12/10 09:29:27;;;;;;;5.73;1.30;;;8.20;99.90;;;;;;5010493;28;20228;-58
2023/12/10 09:31:54;;;;;;;5.03;0.80;;;8.20;99.90;;;;;;5012538;28;20700;-59
2023/12/10 09:34:21;;;;;;;18.97;3.40;;;8.30;99.90;;;;;;5013070;28;20665;-57
2023/12/10 09:36:52;;;;;;;4.83;0.93;;;8.30;99.90;;;;;;5009662;28;20666;-58
2023/12/10 09:39:19;;;;;;;4.03;0.93;;;8.70;99.90;;;;;;5013263;28;20232;-58
2023/12/10 09:41:50;;;;;;;7.37;1.00;;;9.00;99.90;;;;;;5011280;28;20201;-57
2023/12/10 09:44:17;;;;;;;7.33;0.90;;;9.20;99.90;;;;;;5011527;28;20297;-57
2023/12/10 09:46:47;;;;;;;2.95;0.90;;;9.30;99.90;;;;;;5004181;28;20456;-62
2023/12/10 09:49:15;;;;;;;4.63;0.70;;;9.50;99.90;;;;;;5009522;28;20296;-61
2023/12/10 09:51:42;;;;;;;8.17;1.00;;;9.50;99.90;;;;;;5013817;28;20229;-61
2023/12/10 09:54:10;;;;;;;4.70;0.67;;;9.50;99.90;;;;;;5013761;28;20204;-60
2023/12/10 09:56:37;;;;;;;2.00;0.60;;;9.60;99.90;;;;;;5007727;28;20206;-59
2023/12/10 09:59:04;;;;;;;4.67;0.67;;;9.70;99.90;;;;;;5006117;28;20780;-60
2023/12/10 10:01:31;;;;;;;6.00;1.40;;;9.90;99.90;;;;;;5011857;28;20193;-61
2023/12/10 10:03:59;;;;;;;3.67;0.83;;;10.10;99.90;;;;;;5013259;28;20203;-59
2023/12/10 10:06:27;;;;;;;2.63;0.70;;;10.00;99.90;;;;;;5009965;28;20207;-60
2023/12/10 10:08:54;;;;;;;3.50;0.60;;;10.10;99.90;;;;;;5002340;28;20228;-58
2023/12/10 10:11:23;;;;;;;1.67;0.70;;;10.10;99.90;;;;;;4999544;28;20611;-58
2023/12/10 10:13:52;;;;;;;3.03;1.20;;;10.10;99.90;;;;;;5012754;28;20197;-58
2023/12/10 10:16:20;;;;;;;3.40;0.97;;;10.20;99.90;;;;;;5014029;28;20208;-58
2023/12/10 10:18:48;;;;;;;2.40;0.37;;;10.00;99.90;;;;;;5012757;28;20226;-58
2023/12/10 10:21:16;;;;;;;4.83;0.50;;;10.00;99.90;;;;;;5013428;28;20257;-58
2023/12/10 10:23:43;;;;;;;1.90;0.90;;;10.10;99.90;;;;;;5011375;28;20256;-58
2023/12/10 10:26:11;;;;;;;3.13;0.70;;;10.40;99.90;;;;;;5011920;28;20227;-58
2023/12/10 10:28:40;;;;;;;4.23;0.60;;;10.70;99.90;;;;;;5012086;28;20705;-59
2023/12/10 10:31:09;;;;;;;3.27;0.50;;;10.60;99.90;;;;;;5013415;28;20229;-58
2023/12/10 10:33:36;;;;;;;2.80;0.50;;;10.30;99.90;;;;;;5011736;28;20206;-58
2023/12/10 10:36:04;;;;;;;2.10;0.77;;;10.00;99.90;;;;;;5011968;28;20283;-58
2023/12/10 10:38:31;;;;;;;5.23;1.40;;;9.70;99.90;;;;;;5007180;28;20237;-58
2023/12/10 10:40:59;;;;;;;3.50;0.60;;;9.60;99.90;;;;;;5010423;28;20656;-58
2023/12/10 10:43:26;;;;;;;1.27;0.20;;;9.30;99.90;;;;;;5001597;28;20742;-58
2023/12/10 10:45:55;;;;;;;4.70;0.67;;;9.20;99.90;;;;;;5013017;28;20902;-58
2023/12/10 10:48:25;;;;;;;7.60;0.80;;;9.00;99.90;;;;;;5012580;28;20221;-58
2023/12/10 10:50:54;;;;;;;0.47;0.30;;;9.10;99.90;;;;;;5011822;28;20224;-58
2023/12/10 10:53:22;;;;;;;2.10;0.50;;;9.20;99.90;;;;;;5009376;28;20211;-58
2023/12/10 10:55:49;;;;;;;2.53;0.43;;;9.20;99.90;;;;;;5019248;28;20206;-58
2023/12/10 10:58:40;;;;;;;5.27;0.40;;;9.20;99.90;;;;;;5007517;28;20223;-58
2023/12/10 11:01:39;;;;;;;4.00;0.50;;;9.50;99.90;;;;;;5008054;28;20205;-58
2023/12/10 11:04:06;;;;;;;3.17;0.80;;;9.80;99.90;;;;;;5012255;28;20210;-58
2023/12/10 11:06:35;;;;;;;2.17;0.40;;;9.90;99.90;;;;;;5012853;28;20228;-58
2023/12/10 11:09:02;;;;;;;3.73;0.40;;;9.80;99.90;;;;;;5012127;28;20222;-58
2023/12/10 11:11:29;;;;;;;2.73;0.60;;;9.70;99.90;;;;;;5009578;28;20219;-58
2023/12/10 11:13:56;;;;;;;2.77;0.70;;;9.60;99.90;;;;;;5008167;28;20640;-58
2023/12/10 11:16:26;;;;;;;13.87;0.83;;;9.60;99.90;;;;;;5008721;28;20203;-58
2023/12/10 11:18:54;;;;;;;2.27;0.30;;;9.70;99.90;;;;;;5009793;28;20225;-64
2023/12/10 11:21:21;;;;;;;5.17;0.40;;;9.70;99.90;;;;;;5010672;28;20256;-64
2023/12/10 11:23:49;;;;;;;1.93;0.40;;;9.70;99.90;;;;;;5013091;28;20580;-57
2023/12/10 11:26:16;;;;;;;3.43;0.67;;;9.60;99.90;;;;;;5003851;28;20318;-57
2023/12/10 11:28:44;;;;;;;4.30;0.67;;;9.50;99.90;;;;;;5004019;28;20743;-57
2023/12/10 11:31:11;;;;;;;3.30;1.00;;;9.50;99.90;;;;;;5002468;28;20633;-57
2023/12/10 11:33:40;;;;;;;3.47;0.57;;;9.60;99.90;;;;;;5003511;28;20259;-57
2023/12/10 11:36:09;;;;;;;5.03;0.77;;;9.70;99.90;;;;;;5000323;28;20296;-57
2023/12/10 11:38:36;;;;;;;4.90;0.70;;;9.70;99.90;;;;;;5003710;28;20232;-57
2023/12/10 11:41:03;;;;;;;1.70;0.30;;;9.70;99.90;;;;;;5000841;28;20225;-57
2023/12/10 11:43:30;;;;;;;8.27;0.60;;;9.70;99.90;;;;;;5005338;28;20711;-57
2023/12/10 11:45:57;;;;;;;1.80;0.40;;;9.70;99.90;;;;;;5001078;28;20210;-57
2023/12/10 11:48:24;;;;;;;3.57;0.97;;;9.70;99.90;;;;;;5001044;28;20220;-57
2023/12/10 11:50:53;;;;;;;4.40;0.80;;;9.70;99.90;;;;;;5001191;28;20712;-57
2023/12/10 11:53:19;;;;;;;1.43;0.40;;;9.70;99.90;;;;;;5000497;28;20214;-57
2023/12/10 11:55:48;;;;;;;3.80;1.63;;;9.70;99.90;;;;;;5000422;28;20263;-57
2023/12/10 11:58:15;;;;;;;1.53;1.10;;;9.80;99.90;;;;;;5004978;28;20225;-57
2023/12/10 12:00:57;;;;;;;2.27;0.30;;;9.90;99.90;;;;;;5011599;28;20202;-57
2023/12/10 12:03:24;;;;;;;1.50;0.30;;;9.90;99.90;;;;;;5005285;28;20288;-57
2023/12/10 12:05:53;;;;;;;1.80;0.50;;;9.90;99.90;;;;;;5002628;28;20209;-57
2023/12/10 12:08:20;;;;;;;5.00;0.63;;;10.00;99.90;;;;;;5000693;28;20227;-57
2023/12/10 12:10:50;;;;;;;0.77;0.40;;;10.00;99.90;;;;;;5008387;28;20198;-57
2023/12/10 12:13:17;;;;;;;5.33;0.30;;;10.00;99.90;;;;;;5004110;28;20225;-57
2023/12/10 12:15:48;;;;;;;6.73;0.60;;;10.00;99.90;;;;;;5011914;28;20589;-57
2023/12/10 12:18:16;;;;;;;3.50;0.60;;;9.90;99.90;;;;;;5006398;28;20229;-57
2023/12/10 12:20:43;;;;;;;7.80;0.90;;;10.00;99.90;;;;;;5011592;28;20203;-57
2023/12/10 12:23:12;;;;;;;2.30;0.50;;;10.00;99.90;;;;;;5010992;28;20733;-57
2023/12/10 12:25:39;;;;;;;3.60;0.50;;;10.00;99.90;;;;;;5007506;28;20589;-57
2023/12/10 12:28:07;;;;;;;4.70;0.60;;;9.90;99.90;;;;;;4999243;28;20225;-57
2023/12/10 12:30:35;;;;;;;1.40;0.30;;;10.10;99.90;;;;;;5013922;28;20292;-57
2023/12/10 12:33:02;;;;;;;2.17;0.63;;;10.00;99.90;;;;;;4994552;28;20218;-57
2023/12/10 12:35:31;;;;;;;3.07;0.60;;;9.90;99.90;;;;;;4992356;28;20214;-57
2023/12/10 12:37:58;;;;;;;2.53;0.80;;;9.80;99.90;;;;;;5005840;28;20233;-57
2023/12/10 12:40:26;;;;;;;2.97;0.63;;;9.70;99.90;;;;;;5009331;28;20616;-57
2023/12/10 12:42:53;;;;;;;2.47;0.53;;;9.70;99.90;;;;;;5011712;28;20202;-57
2023/12/10 12:45:21;;;;;;;3.57;0.70;;;9.70;99.90;;;;;;5016673;28;20197;-57
2023/12/10 12:47:48;;;;;;;5.33;0.67;;;9.60;99.90;;;;;;5011433;28;20221;-57
2023/12/10 12:50:16;;;;;;;2.60;0.90;;;9.50;99.90;;;;;;5010351;28;20695;-57
2023/12/10 12:52:43;;;;;;;4.33;1.57;;;9.50;99.90;;;;;;5004582;28;20284;-57
2023/12/10 12:55:10;;;;;;;4.93;0.60;;;9.40;99.90;;;;;;5008934;28;20660;-57
2023/12/10 12:57:38;;;;;;;4.53;0.87;;;9.30;99.90;;;;;;5009848;28;20280;-58